createdAt,value
2016-04-27T00:00:32.169Z,957.72
2016-04-27T00:01:32.171Z,957.78
2016-04-27T00:02:32.174Z,957.73
2016-04-27T00:03:32.162Z,957.74
2016-04-27T00:04:32.165Z,957.72
2016-04-27T00:05:32.167Z,957.76
2016-04-27T00:06:32.420Z,957.79
2016-04-27T00:07:32.156Z,957.79
2016-04-27T00:08:32.160Z,957.86
2016-04-27T00:09:32.162Z,957.88
2016-04-27T00:10:32.164Z,957.87
2016-04-27T00:11:32.167Z,957.85
2016-04-27T00:12:32.170Z,957.83
2016-04-27T00:13:32.157Z,957.82
2016-04-27T00:14:32.159Z,957.88
2016-04-27T00:15:32.162Z,957.92
2016-04-27T00:16:32.164Z,958.02
2016-04-27T00:17:32.152Z,958.01
2016-04-27T00:18:32.155Z,957.99
2016-04-27T00:19:32.157Z,957.97
2016-04-27T00:20:32.161Z,957.99
2016-04-27T00:21:32.147Z,958
2016-04-27T00:22:32.697Z,957.92
2016-04-27T00:23:32.153Z,957.93
2016-04-27T00:24:32.155Z,957.89
2016-04-27T00:25:32.158Z,957.85
2016-04-27T00:26:32.160Z,957.85
2016-04-27T00:27:32.147Z,957.88
2016-04-27T00:28:32.150Z,957.83
2016-04-27T00:29:32.153Z,957.87
2016-04-27T00:30:32.140Z,957.9
2016-04-27T00:31:32.143Z,957.87
2016-04-27T00:32:32.146Z,957.97
2016-04-27T00:33:32.149Z,957.96
2016-04-27T00:34:32.151Z,957.94
2016-04-27T00:35:32.138Z,957.97
2016-04-27T00:36:32.156Z,958.05
2016-04-27T00:37:32.143Z,958.07
2016-04-27T00:38:32.146Z,958.1
2016-04-27T00:39:32.148Z,958.04
2016-04-27T00:40:32.149Z,958.02
2016-04-27T00:41:32.173Z,958.07
2016-04-27T00:42:32.135Z,958.01
2016-04-27T00:43:32.127Z,958.04
2016-04-27T00:44:33.316Z,958.04
2016-04-27T00:45:32.137Z,958.04
2016-04-27T00:46:32.140Z,958.08
2016-04-27T00:47:32.126Z,958.1
2016-04-27T00:48:32.129Z,958.1
2016-04-27T00:49:32.132Z,958.15
2016-04-27T00:50:32.135Z,958.12
2016-04-27T00:51:32.340Z,958.14
2016-04-27T00:52:32.125Z,958.14
2016-04-27T00:53:32.127Z,958.12
2016-04-27T00:54:32.129Z,958.06
2016-04-27T00:55:32.133Z,958.02
2016-04-27T00:56:32.136Z,958.06
2016-04-27T00:57:32.122Z,958.04
2016-04-27T00:58:32.124Z,958.05
2016-04-27T00:59:32.128Z,958.04
2016-04-27T01:00:32.130Z,958.03
2016-04-27T01:01:32.133Z,958.05
2016-04-27T01:02:32.120Z,958.1
2016-04-27T01:03:32.122Z,958.11
2016-04-27T01:04:32.125Z,958.19
2016-04-27T01:05:32.112Z,958.18
2016-04-27T01:06:32.116Z,958.24
2016-04-27T01:07:32.118Z,958.23
2016-04-27T01:08:32.120Z,958.32
2016-04-27T01:09:32.124Z,958.26
2016-04-27T01:10:32.126Z,958.27
2016-04-27T01:11:32.112Z,958.25
2016-04-27T01:12:32.115Z,958.19
2016-04-27T01:13:32.118Z,958.18
2016-04-27T01:14:32.121Z,958.15
2016-04-27T01:15:32.123Z,958.2
2016-04-27T01:16:32.110Z,958.25
2016-04-27T01:17:32.113Z,958.3
2016-04-27T01:18:32.131Z,958.35
2016-04-27T01:19:32.118Z,958.29
2016-04-27T01:20:32.106Z,958.27
2016-04-27T01:21:32.139Z,958.29
2016-04-27T01:22:32.117Z,958.3
2016-04-27T01:23:32.121Z,958.31
2016-04-27T01:24:32.108Z,958.29
2016-04-27T01:25:32.111Z,958.3
2016-04-27T01:26:32.114Z,958.25
2016-04-27T01:27:32.100Z,958.29
2016-04-27T01:28:32.103Z,958.3
2016-04-27T01:29:32.106Z,958.39
2016-04-27T01:30:32.109Z,958.44
2016-04-27T01:31:32.111Z,958.46
2016-04-27T01:32:32.114Z,958.45
2016-04-27T01:33:32.102Z,958.47
2016-04-27T01:34:32.105Z,958.48
2016-04-27T01:35:32.107Z,958.51
2016-04-27T01:36:32.110Z,958.53
2016-04-27T01:37:32.113Z,958.54
2016-04-27T01:38:32.099Z,958.57
2016-04-27T01:39:32.102Z,958.53
2016-04-27T01:40:32.104Z,958.5
2016-04-27T01:41:32.092Z,958.43
2016-04-27T01:42:32.095Z,958.49
2016-04-27T01:43:32.112Z,958.42
2016-04-27T01:44:32.100Z,958.46
2016-04-27T01:45:32.103Z,958.52
2016-04-27T01:46:32.106Z,958.51
2016-04-27T01:47:32.108Z,958.48
2016-04-27T01:48:32.095Z,958.52
2016-04-27T01:49:32.099Z,958.52
2016-04-27T01:50:32.102Z,958.51
2016-04-27T01:51:32.120Z,958.52
2016-04-27T01:52:32.107Z,958.48
2016-04-27T01:53:32.094Z,958.5
2016-04-27T01:54:32.096Z,958.55
2016-04-27T01:55:32.098Z,958.53
2016-04-27T01:56:32.087Z,958.59
2016-04-27T01:57:32.339Z,958.56
2016-04-27T01:58:32.092Z,958.58
2016-04-27T01:59:32.094Z,958.62
2016-04-27T02:00:32.097Z,958.61
2016-04-27T02:01:32.084Z,958.59
2016-04-27T02:02:32.087Z,958.61
2016-04-27T02:03:32.089Z,958.68
2016-04-27T02:04:32.092Z,958.64
2016-04-27T02:05:32.079Z,958.78
2016-04-27T02:06:32.098Z,958.81
2016-04-27T02:07:32.084Z,958.86
2016-04-27T02:08:32.087Z,958.92
2016-04-27T02:09:32.090Z,958.98
2016-04-27T02:10:32.093Z,959
2016-04-27T02:11:32.095Z,958.97
2016-04-27T02:12:32.082Z,958.99
2016-04-27T02:13:32.085Z,958.98
2016-04-27T02:14:32.088Z,958.98
2016-04-27T02:15:32.090Z,958.97
2016-04-27T02:16:32.077Z,958.96
2016-04-27T02:17:32.080Z,959
2016-04-27T02:18:32.083Z,958.97
2016-04-27T02:19:32.085Z,958.99
2016-04-27T02:20:32.073Z,958.99
2016-04-27T02:21:32.076Z,958.98
2016-04-27T02:22:32.079Z,959.01
2016-04-27T02:23:32.081Z,958.94
2016-04-27T02:24:32.084Z,958.98
2016-04-27T02:25:32.071Z,958.98
2016-04-27T02:26:32.074Z,958.94
2016-04-27T02:27:32.075Z,958.93
2016-04-27T02:28:32.078Z,958.89
2016-04-27T02:29:32.066Z,958.96
2016-04-27T02:30:32.068Z,958.91
2016-04-27T02:31:32.070Z,958.94
2016-04-27T02:32:32.073Z,958.98
2016-04-27T02:33:32.076Z,958.95
2016-04-27T02:34:32.064Z,958.93
2016-04-27T02:35:32.066Z,958.95
2016-04-27T02:36:32.788Z,958.97
2016-04-27T02:37:32.071Z,959.03
2016-04-27T02:38:32.075Z,959.03
2016-04-27T02:39:32.061Z,958.99
2016-04-27T02:40:32.064Z,958.98
2016-04-27T02:41:32.067Z,959.05
2016-04-27T02:42:32.077Z,959.09
2016-04-27T02:43:32.121Z,959.11
2016-04-27T02:44:32.149Z,959.12
2016-04-27T02:45:32.195Z,959.15
2016-04-27T02:46:32.239Z,959.16
2016-04-27T02:47:32.278Z,959.18
2016-04-27T02:48:32.297Z,959.19
2016-04-27T02:49:32.300Z,959.18
2016-04-27T02:50:32.319Z,959.21
2016-04-27T02:51:32.336Z,959.25
2016-04-27T02:52:32.352Z,959.23
2016-04-27T02:53:32.361Z,959.27
2016-04-27T02:54:32.352Z,959.25
2016-04-27T02:55:32.361Z,959.3
2016-04-27T02:56:32.384Z,959.33
2016-04-27T02:57:32.376Z,959.39
2016-04-27T02:58:32.365Z,959.46
2016-04-27T02:59:32.371Z,959.52
2016-04-27T03:00:32.375Z,959.5
2016-04-27T03:01:32.379Z,959.51
2016-04-27T03:02:32.368Z,959.52
2016-04-27T03:03:32.371Z,959.48
2016-04-27T03:04:32.375Z,959.51
2016-04-27T03:05:32.378Z,959.49
2016-04-27T03:06:32.382Z,959.51
2016-04-27T03:07:32.369Z,959.5
2016-04-27T03:08:32.372Z,959.56
2016-04-27T03:09:32.376Z,959.57
2016-04-27T03:10:32.378Z,959.6
2016-04-27T03:11:32.381Z,959.56
2016-04-27T03:12:32.385Z,959.61
2016-04-27T03:13:32.373Z,959.61
2016-04-27T03:14:32.375Z,959.58
2016-04-27T03:15:32.377Z,959.59
2016-04-27T03:16:32.364Z,959.6
2016-04-27T03:17:32.367Z,959.62
2016-04-27T03:18:32.369Z,959.6
2016-04-27T03:19:32.372Z,959.67
2016-04-27T03:20:32.375Z,959.66
2016-04-27T03:21:32.378Z,959.7
2016-04-27T03:22:32.364Z,959.72
2016-04-27T03:23:32.367Z,959.72
2016-04-27T03:24:32.370Z,959.68
2016-04-27T03:25:32.373Z,959.77
2016-04-27T03:26:32.360Z,959.77
2016-04-27T03:27:32.362Z,959.78
2016-04-27T03:28:32.366Z,959.8
2016-04-27T03:29:32.368Z,959.7
2016-04-27T03:30:32.371Z,959.77
2016-04-27T03:31:32.358Z,959.77
2016-04-27T03:32:32.360Z,959.8
2016-04-27T03:33:32.363Z,959.76
2016-04-27T03:34:32.366Z,959.76
2016-04-27T03:35:32.353Z,959.75
2016-04-27T03:36:32.356Z,959.76
2016-04-27T03:37:32.359Z,959.77
2016-04-27T03:38:32.361Z,959.76
2016-04-27T03:39:32.364Z,959.76
2016-04-27T03:40:32.367Z,959.77
2016-04-27T03:41:32.353Z,959.81
2016-04-27T03:42:32.356Z,959.86
2016-04-27T03:43:32.359Z,959.86
2016-04-27T03:44:32.345Z,959.94
2016-04-27T03:45:32.348Z,959.86
2016-04-27T03:46:32.351Z,959.9
2016-04-27T03:47:32.354Z,959.92
2016-04-27T03:48:32.356Z,959.91
2016-04-27T03:49:32.344Z,959.98
2016-04-27T03:50:32.346Z,960
2016-04-27T03:51:32.350Z,960.07
2016-04-27T03:52:32.680Z,960.04
2016-04-27T03:53:32.339Z,960.08
2016-04-27T03:54:32.342Z,960
2016-04-27T03:55:32.344Z,960.02
2016-04-27T03:56:32.347Z,960
2016-04-27T03:57:32.349Z,959.98
2016-04-27T03:58:32.336Z,960.03
2016-04-27T03:59:32.339Z,960.02
2016-04-27T04:00:32.341Z,960.02
2016-04-27T04:01:32.344Z,960.04
2016-04-27T04:02:32.347Z,960.02
2016-04-27T04:03:32.335Z,960.05
2016-04-27T04:04:32.337Z,960.02
2016-04-27T04:05:32.341Z,960.07
2016-04-27T04:06:32.327Z,960.09
2016-04-27T04:07:32.330Z,960.08
2016-04-27T04:08:32.333Z,960.08
2016-04-27T04:09:32.336Z,960.12
2016-04-27T04:10:32.338Z,960.09
2016-04-27T04:11:32.327Z,960.11
2016-04-27T04:12:32.329Z,960.15
2016-04-27T04:13:32.346Z,960.17
2016-04-27T04:14:32.334Z,960.21
2016-04-27T04:15:32.337Z,960.2
2016-04-27T04:16:32.339Z,960.17
2016-04-27T04:17:32.327Z,960.18
2016-04-27T04:18:32.329Z,960.2
2016-04-27T04:19:32.348Z,960.23
2016-04-27T04:20:32.335Z,960.23
2016-04-27T04:21:32.321Z,960.21
2016-04-27T04:22:32.484Z,960.24
2016-04-27T04:23:32.330Z,960.22
2016-04-27T04:24:32.333Z,960.27
2016-04-27T04:25:32.320Z,960.25
2016-04-27T04:26:32.324Z,960.2
2016-04-27T04:27:32.326Z,960.26
2016-04-27T04:28:32.329Z,960.29
2016-04-27T04:29:32.332Z,960.33
2016-04-27T04:30:32.319Z,960.37
2016-04-27T04:31:32.321Z,960.35
2016-04-27T04:32:32.340Z,960.44
2016-04-27T04:33:32.326Z,960.47
2016-04-27T04:34:32.329Z,960.41
2016-04-27T04:35:32.315Z,960.46
2016-04-27T04:36:32.975Z,960.46
2016-04-27T04:37:32.321Z,960.45
2016-04-27T04:38:32.324Z,960.47
2016-04-27T04:39:32.326Z,960.41
2016-04-27T04:40:32.314Z,960.4
2016-04-27T04:41:32.317Z,960.32
2016-04-27T04:42:32.319Z,960.36
2016-04-27T04:43:32.323Z,960.37
2016-04-27T04:44:32.309Z,960.41
2016-04-27T04:45:32.312Z,960.39
2016-04-27T04:46:32.330Z,960.45
2016-04-27T04:47:32.317Z,960.5
2016-04-27T04:48:32.304Z,960.52
2016-04-27T04:49:32.306Z,960.46
2016-04-27T04:50:32.309Z,960.47
2016-04-27T04:51:32.312Z,960.43
2016-04-27T04:52:32.314Z,960.5
2016-04-27T04:53:32.303Z,960.47
2016-04-27T04:54:32.305Z,960.46
2016-04-27T04:55:32.307Z,960.47
2016-04-27T04:56:32.310Z,960.5
2016-04-27T04:57:32.313Z,960.52
2016-04-27T04:58:32.299Z,960.57
2016-04-27T04:59:32.302Z,960.48
2016-04-27T05:00:32.306Z,960.5
2016-04-27T05:01:32.308Z,960.52
2016-04-27T05:02:32.311Z,960.5
2016-04-27T05:03:32.298Z,960.53
2016-04-27T05:04:32.301Z,960.58
2016-04-27T05:05:32.304Z,960.66
2016-04-27T05:06:32.352Z,960.61
2016-04-27T05:07:32.309Z,960.63
2016-04-27T05:08:32.295Z,960.59
2016-04-27T05:09:32.298Z,960.68
2016-04-27T05:10:32.301Z,960.65
2016-04-27T05:11:32.304Z,960.72
2016-04-27T05:12:32.291Z,960.64
2016-04-27T05:13:32.293Z,960.71
2016-04-27T05:14:32.296Z,960.69
2016-04-27T05:15:32.298Z,960.71
2016-04-27T05:16:32.301Z,960.7
2016-04-27T05:17:32.288Z,960.72
2016-04-27T05:18:32.291Z,960.79
2016-04-27T05:19:32.294Z,960.76
2016-04-27T05:20:32.297Z,960.77
2016-04-27T05:21:35.925Z,960.78
2016-04-27T05:22:32.302Z,960.76
2016-04-27T05:23:32.289Z,960.76
2016-04-27T05:24:32.291Z,960.73
2016-04-27T05:25:32.294Z,960.71
2016-04-27T05:26:32.297Z,960.76
2016-04-27T05:27:32.283Z,960.82
2016-04-27T05:28:32.287Z,960.85
2016-04-27T05:29:32.289Z,960.87
2016-04-27T05:30:32.292Z,960.92
2016-04-27T05:31:32.280Z,960.85
2016-04-27T05:32:32.282Z,960.9
2016-04-27T05:33:32.285Z,960.93
2016-04-27T05:34:32.287Z,960.84
2016-04-27T05:35:32.290Z,960.92
2016-04-27T05:36:32.277Z,960.91
2016-04-27T05:37:32.280Z,960.95
2016-04-27T05:38:32.282Z,960.86
2016-04-27T05:39:32.285Z,960.89
2016-04-27T05:40:32.288Z,960.94
2016-04-27T05:41:32.290Z,960.99
2016-04-27T05:42:32.293Z,961
2016-04-27T05:43:32.280Z,960.93
2016-04-27T05:44:32.283Z,960.97
2016-04-27T05:45:32.286Z,960.98
2016-04-27T05:46:32.289Z,960.96
2016-04-27T05:47:32.292Z,960.98
2016-04-27T05:48:32.278Z,960.91
2016-04-27T05:49:32.297Z,960.99
2016-04-27T05:50:32.299Z,960.99
2016-04-27T05:51:32.286Z,961.05
2016-04-27T05:52:32.289Z,960.98
2016-04-27T05:53:32.292Z,960.93
2016-04-27T05:54:32.294Z,960.95
2016-04-27T05:55:32.297Z,960.94
2016-04-27T05:56:32.300Z,960.95
2016-04-27T05:57:32.303Z,960.95
2016-04-27T05:58:32.305Z,961.04
2016-04-27T05:59:32.324Z,961
2016-04-27T06:00:32.310Z,960.99
2016-04-27T06:01:32.313Z,961.03
2016-04-27T06:02:32.316Z,961.04
2016-04-27T06:03:32.319Z,961.04
2016-04-27T06:04:32.321Z,961.04
2016-04-27T06:05:32.324Z,961.06
2016-04-27T06:06:32.326Z,961.05
2016-04-27T06:07:32.329Z,961.1
2016-04-27T06:08:32.332Z,961.13
2016-04-27T06:09:32.334Z,961.12
2016-04-27T06:10:32.338Z,961.13
2016-04-27T06:11:32.356Z,961.2
2016-04-27T06:12:32.359Z,961.15
2016-04-27T06:13:32.362Z,961.18
2016-04-27T06:14:32.364Z,961.11
2016-04-27T06:15:32.367Z,961.14
2016-04-27T06:16:32.369Z,961.16
2016-04-27T06:17:32.372Z,961.17
2016-04-27T06:18:32.375Z,961.25
2016-04-27T06:19:32.392Z,961.21
2016-04-27T06:20:32.396Z,961.2
2016-04-27T06:21:32.398Z,961.25
2016-04-27T06:22:33.651Z,961.22
2016-04-27T06:23:32.404Z,961.22
2016-04-27T06:24:32.406Z,961.25
2016-04-27T06:25:32.425Z,961.21
2016-04-27T06:26:32.427Z,961.22
2016-04-27T06:27:32.430Z,961.22
2016-04-27T06:28:32.433Z,961.25
2016-04-27T06:29:32.450Z,961.22
2016-04-27T06:30:32.453Z,961.27
2016-04-27T06:31:32.456Z,961.29
2016-04-27T06:32:32.458Z,961.3
2016-04-27T06:33:32.477Z,961.26
2016-04-27T06:34:32.480Z,961.3
2016-04-27T06:35:32.482Z,961.35
2016-04-27T06:36:32.485Z,961.4
2016-04-27T06:37:34.659Z,961.33
2016-04-27T06:38:32.507Z,961.32
2016-04-27T06:39:32.509Z,961.42
2016-04-27T06:40:32.512Z,961.44
2016-04-27T06:41:32.530Z,961.42
2016-04-27T06:42:32.532Z,961.46
2016-04-27T06:43:32.551Z,961.44
2016-04-27T06:44:32.554Z,961.41
2016-04-27T06:45:32.556Z,961.44
2016-04-27T06:46:32.559Z,961.51
2016-04-27T06:47:32.578Z,961.51
2016-04-27T06:48:32.581Z,961.47
2016-04-27T06:49:32.584Z,961.49
2016-04-27T06:50:32.586Z,961.5
2016-04-27T06:51:32.588Z,961.56
2016-04-27T06:52:32.607Z,961.49
2016-04-27T06:53:32.609Z,961.49
2016-04-27T06:54:32.612Z,961.53
2016-04-27T06:55:32.630Z,961.59
2016-04-27T06:56:32.633Z,961.53
2016-04-27T06:57:32.636Z,961.55
2016-04-27T06:58:32.639Z,961.54
2016-04-27T06:59:32.656Z,961.58
2016-04-27T07:00:32.659Z,961.55
2016-04-27T07:01:32.662Z,961.51
2016-04-27T07:02:32.680Z,961.52
2016-04-27T07:03:32.683Z,961.55
2016-04-27T07:04:32.685Z,961.56
2016-04-27T07:05:32.688Z,961.54
2016-04-27T07:06:32.707Z,961.53
2016-04-27T07:07:32.710Z,961.48
2016-04-27T07:08:32.744Z,961.54
2016-04-27T07:09:32.715Z,961.48
2016-04-27T07:10:32.733Z,961.54
2016-04-27T07:11:32.736Z,961.53
2016-04-27T07:12:32.754Z,961.49
2016-04-27T07:13:32.757Z,961.53
2016-04-27T07:14:32.759Z,961.53
2016-04-27T07:15:32.778Z,961.45
2016-04-27T07:16:32.781Z,961.49
2016-04-27T07:17:32.784Z,961.47
2016-04-27T07:18:32.802Z,961.56
2016-04-27T07:19:32.820Z,961.59
2016-04-27T07:20:32.807Z,961.59
2016-04-27T07:21:32.825Z,961.61
2016-04-27T07:22:32.828Z,961.57
2016-04-27T07:23:32.845Z,961.56
2016-04-27T07:24:32.849Z,961.56
2016-04-27T07:25:32.851Z,961.59
2016-04-27T07:26:32.853Z,961.54
2016-04-27T07:27:32.873Z,961.54
2016-04-27T07:28:32.875Z,961.6
2016-04-27T07:29:32.877Z,961.57
2016-04-27T07:30:32.897Z,961.5
2016-04-27T07:31:32.899Z,961.56
2016-04-27T07:32:32.902Z,961.54
2016-04-27T07:33:32.920Z,961.45
2016-04-27T07:34:32.920Z,961.5
2016-04-27T07:35:32.938Z,961.53
2016-04-27T07:36:32.941Z,961.43
2016-04-27T07:37:32.960Z,961.44
2016-04-27T07:38:32.962Z,961.49
2016-04-27T07:39:32.965Z,961.42
2016-04-27T07:40:32.983Z,961.43
2016-04-27T07:41:32.985Z,961.46
2016-04-27T07:42:32.988Z,961.52
2016-04-27T07:43:33.007Z,961.49
2016-04-27T07:44:33.010Z,961.47
2016-04-27T07:45:33.027Z,961.52
2016-04-27T07:46:33.029Z,961.54
2016-04-27T07:47:33.033Z,961.48
2016-04-27T07:48:33.052Z,961.48
2016-04-27T07:49:33.070Z,961.5
2016-04-27T07:50:33.073Z,961.49
2016-04-27T07:51:33.075Z,961.48
2016-04-27T07:52:33.093Z,961.56
2016-04-27T07:53:33.112Z,961.57
2016-04-27T07:54:33.114Z,961.56
2016-04-27T07:55:33.117Z,961.65
2016-04-27T07:56:33.120Z,961.61
2016-04-27T07:57:33.138Z,961.47
2016-04-27T07:58:33.141Z,961.52
2016-04-27T07:59:33.143Z,961.57
2016-04-27T08:00:33.161Z,961.51
2016-04-27T08:01:33.164Z,961.59
2016-04-27T08:02:33.183Z,961.62
2016-04-27T08:03:33.186Z,961.53
2016-04-27T08:04:33.203Z,961.62
2016-04-27T08:05:33.222Z,961.64
2016-04-27T08:06:33.208Z,961.67
2016-04-27T08:07:33.228Z,961.64
2016-04-27T08:08:33.230Z,961.56
2016-04-27T08:09:33.249Z,961.65
2016-04-27T08:10:33.251Z,961.59
2016-04-27T08:11:33.269Z,961.67
2016-04-27T08:12:33.272Z,961.66
2016-04-27T08:13:33.274Z,961.69
2016-04-27T08:14:33.293Z,961.73
2016-04-27T08:15:33.296Z,961.75
2016-04-27T08:16:33.315Z,961.66
2016-04-27T08:17:33.332Z,961.57
2016-04-27T08:18:33.335Z,961.59
2016-04-27T08:19:33.337Z,961.66
2016-04-27T08:20:33.341Z,961.75
2016-04-27T08:21:33.359Z,961.71
2016-04-27T08:22:33.362Z,961.81
2016-04-27T08:23:33.365Z,961.73
2016-04-27T08:24:33.382Z,961.68
2016-04-27T08:25:33.385Z,961.81
2016-04-27T08:26:33.387Z,961.8
2016-04-27T08:27:33.406Z,961.74
2016-04-27T08:28:33.408Z,961.8
2016-04-27T08:29:33.428Z,961.85
2016-04-27T08:30:33.430Z,961.73
2016-04-27T08:31:33.433Z,961.76
2016-04-27T08:32:33.448Z,961.81
2016-04-27T08:33:33.450Z,961.86
2016-04-27T08:34:33.454Z,961.8
2016-04-27T08:35:33.472Z,961.82
2016-04-27T08:36:33.474Z,961.87
2016-04-27T08:37:33.478Z,961.83
2016-04-27T08:38:33.496Z,961.76
2016-04-27T08:39:33.499Z,961.86
2016-04-27T08:40:33.516Z,961.83
2016-04-27T08:41:33.519Z,961.79
2016-04-27T08:42:33.522Z,961.85
2016-04-27T08:43:33.524Z,961.86
2016-04-27T08:44:33.527Z,961.81
2016-04-27T08:45:33.545Z,961.82
2016-04-27T08:46:33.533Z,961.85
2016-04-27T08:47:33.551Z,961.86
2016-04-27T08:48:33.553Z,961.82
2016-04-27T08:49:33.557Z,961.79
2016-04-27T08:50:33.574Z,961.82
2016-04-27T08:51:33.577Z,961.85
2016-04-27T08:52:33.596Z,961.87
2016-04-27T08:53:33.582Z,961.87
2016-04-27T08:54:33.601Z,961.77
2016-04-27T08:55:33.603Z,961.89
2016-04-27T08:56:33.607Z,961.85
2016-04-27T08:57:33.609Z,961.83
2016-04-27T08:58:33.611Z,961.87
2016-04-27T08:59:33.631Z,961.88
2016-04-27T09:00:33.633Z,961.67
2016-04-27T09:01:33.636Z,961.87
2016-04-27T09:02:33.638Z,961.81
2016-04-27T09:03:33.656Z,961.88
2016-04-27T09:04:34.972Z,961.86
2016-04-27T09:05:33.662Z,961.85
2016-04-27T09:06:33.664Z,961.85
2016-04-27T09:07:33.683Z,961.78
2016-04-27T09:08:33.686Z,961.84
2016-04-27T09:09:33.704Z,961.81
2016-04-27T09:10:33.691Z,961.79
2016-04-27T09:11:33.694Z,961.86
2016-04-27T09:12:33.697Z,961.82
2016-04-27T09:13:33.715Z,961.81
2016-04-27T09:14:33.717Z,961.9
2016-04-27T09:15:33.720Z,961.92
2016-04-27T09:16:33.723Z,961.93
2016-04-27T09:17:33.741Z,961.97
2016-04-27T09:18:33.744Z,961.93
2016-04-27T09:19:33.746Z,961.9
2016-04-27T09:20:33.765Z,961.96
2016-04-27T09:21:33.752Z,961.99
2016-04-27T09:22:33.754Z,961.95
2016-04-27T09:23:33.773Z,961.94
2016-04-27T09:24:33.776Z,961.97
2016-04-27T09:25:33.778Z,961.99
2016-04-27T09:26:33.781Z,961.98
2016-04-27T09:27:33.798Z,961.97
2016-04-27T09:28:33.802Z,962
2016-04-27T09:29:33.804Z,962.01
2016-04-27T09:30:33.807Z,961.99
2016-04-27T09:31:33.809Z,961.98
2016-04-27T09:32:33.812Z,961.98
2016-04-27T09:33:33.815Z,961.99
2016-04-27T09:34:33.834Z,961.93
2016-04-27T09:35:33.836Z,961.97
2016-04-27T09:36:33.839Z,961.95
2016-04-27T09:37:34.014Z,961.83
2016-04-27T09:38:33.844Z,961.84
2016-04-27T09:39:33.847Z,961.94
2016-04-27T09:40:33.865Z,961.97
2016-04-27T09:41:33.869Z,961.91
2016-04-27T09:42:33.871Z,961.87
2016-04-27T09:43:33.874Z,961.84
2016-04-27T09:44:33.877Z,961.91
2016-04-27T09:45:33.879Z,961.8
2016-04-27T09:46:33.897Z,961.82
2016-04-27T09:47:33.900Z,961.85
2016-04-27T09:48:33.902Z,961.86
2016-04-27T09:49:33.905Z,961.85
2016-04-27T09:50:33.924Z,961.79
2016-04-27T09:51:33.911Z,961.85
2016-04-27T09:52:33.929Z,961.7
2016-04-27T09:53:33.948Z,961.54
2016-04-27T09:54:33.935Z,961.78
2016-04-27T09:55:33.937Z,961.85
2016-04-27T09:56:33.939Z,961.7
2016-04-27T09:57:33.943Z,961.84
2016-04-27T09:58:33.945Z,961.75
2016-04-27T09:59:33.948Z,961.7
2016-04-27T10:00:33.951Z,961.69
2016-04-27T10:01:33.953Z,961.77
2016-04-27T10:02:33.972Z,961.67
2016-04-27T10:03:33.975Z,961.74
2016-04-27T10:04:33.977Z,961.72
2016-04-27T10:05:33.980Z,961.76
2016-04-27T10:06:33.983Z,961.75
2016-04-27T10:07:34.001Z,961.75
2016-04-27T10:08:34.003Z,961.72
2016-04-27T10:09:34.005Z,961.78
2016-04-27T10:10:34.009Z,961.81
2016-04-27T10:11:34.011Z,961.71
2016-04-27T10:12:34.013Z,961.71
2016-04-27T10:13:34.017Z,961.76
2016-04-27T10:14:34.019Z,961.82
2016-04-27T10:15:34.022Z,961.82
2016-04-27T10:16:34.024Z,961.85
2016-04-27T10:17:34.028Z,961.77
2016-04-27T10:18:34.046Z,961.76
2016-04-27T10:19:34.049Z,961.74
2016-04-27T10:20:34.052Z,961.78
2016-04-27T10:21:34.054Z,961.82
2016-04-27T10:22:34.051Z,961.92
2016-04-27T10:23:36.701Z,961.88
2016-04-27T10:24:34.064Z,961.83
2016-04-27T10:25:34.066Z,961.85
2016-04-27T10:26:34.070Z,961.87
2016-04-27T10:27:34.072Z,961.84
2016-04-27T10:28:34.091Z,961.88
2016-04-27T10:29:34.094Z,961.93
2016-04-27T10:30:34.096Z,961.86
2016-04-27T10:31:34.099Z,961.96
2016-04-27T10:32:34.101Z,961.98
2016-04-27T10:33:34.104Z,961.93
2016-04-27T10:34:34.107Z,961.9
2016-04-27T10:35:34.110Z,961.97
2016-04-27T10:36:34.112Z,962.03
2016-04-27T10:37:34.115Z,961.96
2016-04-27T10:38:34.603Z,961.92
2016-04-27T10:39:34.136Z,961.95
2016-04-27T10:40:34.139Z,961.95
2016-04-27T10:41:34.141Z,961.94
2016-04-27T10:42:34.145Z,961.9
2016-04-27T10:43:34.147Z,961.96
2016-04-27T10:44:34.150Z,961.96
2016-04-27T10:45:34.152Z,962.01
2016-04-27T10:46:34.155Z,961.98
2016-04-27T10:47:34.189Z,962.03
2016-04-27T10:48:34.177Z,961.99
2016-04-27T10:49:34.179Z,961.81
2016-04-27T10:50:34.182Z,961.98
2016-04-27T10:51:34.185Z,961.88
2016-04-27T10:52:34.202Z,961.92
2016-04-27T10:53:34.190Z,961.88
2016-04-27T10:54:34.193Z,961.91
2016-04-27T10:55:34.196Z,961.9
2016-04-27T10:56:34.198Z,961.91
2016-04-27T10:57:34.200Z,961.89
2016-04-27T10:58:34.219Z,962.01
2016-04-27T10:59:34.221Z,961.95
2016-04-27T11:00:34.213Z,961.83
2016-04-27T11:01:34.230Z,961.89
2016-04-27T11:02:34.218Z,961.98
2016-04-27T11:03:34.236Z,962
2016-04-27T11:04:34.224Z,961.93
2016-04-27T11:05:34.242Z,961.94
2016-04-27T11:06:34.244Z,961.92
2016-04-27T11:07:34.246Z,961.85
2016-04-27T11:08:34.250Z,961.96
2016-04-27T11:09:34.252Z,961.92
2016-04-27T11:10:34.255Z,961.91
2016-04-27T11:11:34.258Z,961.93
2016-04-27T11:12:34.260Z,961.89
2016-04-27T11:13:34.263Z,961.9
2016-04-27T11:14:34.282Z,961.89
2016-04-27T11:15:34.284Z,961.96
2016-04-27T11:16:34.287Z,961.92
2016-04-27T11:17:34.289Z,961.9
2016-04-27T11:18:34.293Z,961.91
2016-04-27T11:19:34.295Z,961.9
2016-04-27T11:20:34.298Z,961.87
2016-04-27T11:21:34.300Z,961.91
2016-04-27T11:22:34.443Z,961.91
2016-04-27T11:23:34.306Z,961.91
2016-04-27T11:24:34.308Z,962.05
2016-04-27T11:25:34.311Z,962.12
2016-04-27T11:26:34.314Z,962.12
2016-04-27T11:27:34.331Z,962.33
2016-04-27T11:28:34.334Z,962.43
2016-04-27T11:29:34.337Z,962.57
2016-04-27T11:30:34.340Z,962.72
2016-04-27T11:31:34.343Z,962.7
2016-04-27T11:32:34.345Z,962.77
2016-04-27T11:33:34.348Z,962.88
2016-04-27T11:34:34.350Z,963.19
2016-04-27T11:35:34.353Z,963.18
2016-04-27T11:36:34.372Z,963.23
2016-04-27T11:37:34.375Z,963.23
2016-04-27T11:38:34.378Z,963.18
2016-04-27T11:39:34.364Z,963.18
2016-04-27T11:40:34.366Z,963.14
2016-04-27T11:41:34.385Z,963.09
2016-04-27T11:42:34.372Z,963.16
2016-04-27T11:43:34.391Z,963.16
2016-04-27T11:44:34.393Z,963.19
2016-04-27T11:45:34.396Z,963.12
2016-04-27T11:46:34.398Z,963.16
2016-04-27T11:47:34.401Z,963.06
2016-04-27T11:48:34.404Z,963.08
2016-04-27T11:49:34.434Z,963.07
2016-04-27T11:50:34.482Z,963.1
2016-04-27T11:51:34.529Z,963.11
2016-04-27T11:52:34.577Z,963.09
2016-04-27T11:53:34.624Z,963.07
2016-04-27T11:54:34.655Z,963.08
2016-04-27T11:55:34.674Z,963.06
2016-04-27T11:56:34.693Z,963.02
2016-04-27T11:57:34.711Z,962.98
2016-04-27T11:58:34.730Z,962.99
2016-04-27T11:59:34.742Z,963
2016-04-27T12:00:34.751Z,962.9
2016-04-27T12:01:34.759Z,962.91
2016-04-27T12:02:34.783Z,962.9
2016-04-27T12:03:34.776Z,962.84
2016-04-27T12:04:34.783Z,962.88
2016-04-27T12:05:34.788Z,962.91
2016-04-27T12:06:34.793Z,962.87
2016-04-27T12:07:34.813Z,962.81
2016-04-27T12:08:34.896Z,962.77
2016-04-27T12:09:34.806Z,962.81
2016-04-27T12:10:34.826Z,962.82
2016-04-27T12:11:34.814Z,962.8
2016-04-27T12:12:34.833Z,962.79
2016-04-27T12:13:34.836Z,962.77
2016-04-27T12:14:34.840Z,962.71
2016-04-27T12:15:34.843Z,962.72
2016-04-27T12:16:34.846Z,962.7
2016-04-27T12:17:34.849Z,962.72
2016-04-27T12:18:34.852Z,962.68
2016-04-27T12:19:34.854Z,962.66
2016-04-27T12:20:34.858Z,962.68
2016-04-27T12:21:34.860Z,962.68
2016-04-27T12:22:34.862Z,962.64
2016-04-27T12:23:35.302Z,962.61
2016-04-27T12:24:34.869Z,962.64
2016-04-27T12:25:34.871Z,962.64
2016-04-27T12:26:34.874Z,962.63
2016-04-27T12:27:34.876Z,962.61
2016-04-27T12:28:34.879Z,962.57
2016-04-27T12:29:34.881Z,962.63
2016-04-27T12:30:34.884Z,962.59
2016-04-27T12:31:34.887Z,962.61